Time;durP1;ratioP1;P1;durP2;ratioP2;P2;SDS_P1;SDS_P2;PMS_P1;PMS_P2;Temp;Humidity;BMP_temperature;BMP_pressure;BME280_temperature;BME280_humidity;BME280_pressure;Samples;Min_cycle;Max_cycle;Signal;HPM_P1;HPM_P2
2021/11/05 00:02:29;;;;;;;9.20;6.97;;;;;;;13.30;83.79;94277.63;1655330;84;21047;-57
2021/11/05 00:04:54;;;;;;;9.93;6.62;;;;;;;13.35;83.71;94288.64;1663053;85;21487;-58
2021/11/05 00:07:21;;;;;;;13.35;8.45;;;;;;;13.38;83.52;94291.83;1654865;85;21013;-57
2021/11/05 00:09:48;;;;;;;14.53;8.40;;;;;;;13.38;83.47;94283.54;1656941;84;21053;-57
2021/11/05 00:12:16;;;;;;;7.05;5.00;;;;;;;13.42;83.30;94293.80;1660706;85;21053;-57
2021/11/05 00:14:44;;;;;;;5.12;3.50;;;;;;;13.43;82.98;94284.28;1669527;84;21436;-57
2021/11/05 00:17:11;;;;;;;5.03;3.40;;;;;;;13.46;82.87;94272.27;1676695;85;20999;-57
2021/11/05 00:19:39;;;;;;;3.47;3.00;;;;;;;13.48;83.01;94276.06;1654395;85;21502;-57
2021/11/05 00:22:07;;;;;;;5.35;3.25;;;;;;;13.49;82.89;94285.88;1649222;85;21038;-57
2021/11/05 00:24:34;;;;;;;3.80;3.10;;;;;;;13.47;83.08;94276.55;1653408;85;21089;-58
2021/11/05 00:27:01;;;;;;;5.95;3.22;;;;;;;13.45;82.99;94263.20;1676759;83;21151;-59
2021/11/05 00:29:28;;;;;;;4.17;3.40;;;;;;;13.47;82.90;94254.45;1688883;83;21120;-57
2021/11/05 00:31:56;;;;;;;8.88;4.40;;;;;;;13.45;82.72;94222.39;1699614;83;20988;-56
2021/11/05 00:34:23;;;;;;;5.92;4.58;;;;;;;13.37;82.67;94225.38;1686524;83;21005;-56
2021/11/05 00:36:49;;;;;;;6.53;4.75;;;;;;;13.34;82.57;94231.86;1659373;84;21059;-55
2021/11/05 00:39:16;;;;;;;10.03;6.30;;;;;;;13.33;82.40;94239.41;1665934;85;21145;-57
2021/11/05 00:41:42;;;;;;;8.58;5.30;;;;;;;13.32;82.22;94232.36;1670027;85;21463;-56
2021/11/05 00:44:09;;;;;;;12.88;7.85;;;;;;;13.31;82.03;94225.91;1637217;86;21039;-57
2021/11/05 00:46:36;;;;;;;8.08;5.10;;;;;;;13.25;81.85;94230.59;1709635;83;20988;-56
2021/11/05 00:49:03;;;;;;;14.50;7.12;;;;;;;13.23;81.77;94231.69;1706393;83;21098;-56
2021/11/05 00:51:30;;;;;;;9.55;5.67;;;;;;;13.21;81.62;94231.37;1689213;83;21086;-56
2021/11/05 00:53:58;;;;;;;7.40;4.70;;;;;;;13.17;81.49;94237.11;1660417;84;21035;-56
2021/11/05 00:56:25;;;;;;;7.83;4.33;;;;;;;13.13;81.31;94228.86;1666376;84;21432;-56
2021/11/05 00:58:52;;;;;;;10.03;5.08;;;;;;;13.05;81.17;94229.86;1667847;85;20955;-55
2021/11/05 01:01:19;;;;;;;6.53;4.28;;;;;;;12.95;81.08;94216.01;1673417;85;21146;-56
2021/11/05 01:03:45;;;;;;;7.30;4.62;;;;;;;12.89;81.29;94210.95;1616640;87;21145;-56
2021/11/05 01:06:17;;;;;;;15.40;7.83;;;;;;;12.85;81.03;94210.99;1661472;85;20978;-56
2021/11/05 01:08:44;;;;;;;18.62;8.13;;;;;;;12.82;81.30;94211.94;1674557;85;21092;-55
2021/11/05 01:11:11;;;;;;;14.87;6.87;;;;;;;12.79;81.55;94204.01;1679213;83;21018;-56
2021/11/05 01:13:39;;;;;;;8.45;4.85;;;;;;;12.77;81.32;94204.33;1671210;85;21082;-57
2021/11/05 01:16:06;;;;;;;7.55;5.83;;;;;;;12.70;81.35;94206.09;1653760;85;21154;-58
2021/11/05 01:18:34;;;;;;;8.00;5.53;;;;;;;12.65;81.49;94203.36;1656677;85;21128;-57
2021/11/05 01:21:01;;;;;;;7.28;4.87;;;;;;;12.61;81.55;94203.39;1676765;84;21133;-56
2021/11/05 01:23:28;;;;;;;8.48;4.70;;;;;;;12.57;81.70;94204.95;1661470;84;21074;-58
2021/11/05 01:25:54;;;;;;;9.70;5.35;;;;;;;12.54;81.65;94207.91;1651424;85;21451;-57
2021/11/05 01:28:21;;;;;;;11.53;6.08;;;;;;;12.50;81.54;94209.32;1693169;83;21846;-55
2021/11/05 01:30:48;;;;;;;6.15;4.58;;;;;;;12.48;81.52;94211.16;1706801;83;21047;-57
2021/11/05 01:33:16;;;;;;;9.53;5.67;;;;;;;12.48;81.35;94208.40;1715708;83;20983;-56
2021/11/05 01:35:44;;;;;;;5.12;4.60;;;;;;;12.53;81.03;94220.19;1698933;83;20983;-56
2021/11/05 01:38:10;;;;;;;6.72;3.80;;;;;;;12.53;80.83;94211.27;1714996;83;21583;-57
2021/11/05 01:40:39;;;;;;;2.47;2.22;;;;;;;12.58;80.50;94231.94;1720755;83;21868;-56
2021/11/05 01:43:06;;;;;;;2.80;2.60;;;;;;;12.73;79.90;94221.70;1693655;83;20990;-56
2021/11/05 01:45:33;;;;;;;2.75;2.40;;;;;;;12.96;79.04;94226.42;1694022;83;21032;-57
2021/11/05 01:47:59;;;;;;;3.20;2.20;;;;;;;13.16;78.21;94223.16;1693848;83;21083;-56
2021/11/05 01:50:27;;;;;;;5.60;3.00;;;;;;;13.33;77.70;94228.35;1718437;82;20998;-57
2021/11/05 01:52:55;;;;;;;6.03;3.80;;;;;;;13.41;77.18;94217.05;1720929;83;21011;-56
2021/11/05 01:55:22;;;;;;;5.05;2.80;;;;;;;13.47;76.83;94198.55;1707532;83;21025;-55
2021/11/05 01:57:49;;;;;;;2.72;2.42;;;;;;;13.51;76.55;94195.59;1709111;82;21521;-56
2021/11/05 02:00:19;;;;;;;2.40;2.20;;;;;;;13.53;75.95;94199.41;1693202;82;21476;-58
2021/11/05 02:02:46;;;;;;;3.20;2.45;;;;;;;13.68;75.65;94205.69;1708126;83;20984;-56
2021/11/05 02:05:13;;;;;;;3.27;2.42;;;;;;;13.84;75.26;94212.69;1694146;83;21045;-56
2021/11/05 02:07:51;;;;;;;3.00;2.70;;;;;;;13.95;74.94;94197.62;1694996;82;21086;-56
2021/11/05 02:10:19;;;;;;;6.40;3.92;;;;;;;13.98;74.84;94191.91;1714176;83;21121;-61
2021/11/05 02:12:47;;;;;;;5.58;3.77;;;;;;;13.94;74.89;94193.34;1701522;82;21172;-56
2021/11/05 02:15:14;;;;;;;5.85;3.80;;;;;;;13.89;75.37;94195.41;1662349;85;20958;-56
2021/11/05 02:17:43;;;;;;;2.65;2.37;;;;;;;13.83;75.69;94200.11;1673658;84;21509;-57
2021/11/05 02:20:11;;;;;;;3.37;3.05;;;;;;;13.75;76.12;94197.59;1706791;82;21629;-55
2021/11/05 02:22:39;;;;;;;5.67;3.47;;;;;;;13.67;76.35;94195.09;1699391;82;20987;-56
2021/11/05 02:25:07;;;;;;;5.78;3.62;;;;;;;13.55;76.91;94194.16;1722998;82;21000;-56
2021/11/05 02:27:34;;;;;;;4.87;3.30;;;;;;;13.43;77.40;94194.47;1676815;83;21098;-56
2021/11/05 02:30:01;;;;;;;5.53;3.30;;;;;;;13.35;77.57;94202.99;1690655;83;21135;-56
2021/11/05 02:32:28;;;;;;;4.90;3.45;;;;;;;13.30;77.71;94209.20;1686693;83;21105;-56
2021/11/05 02:34:55;;;;;;;7.97;3.77;;;;;;;13.25;77.60;94197.44;1698091;83;20988;-56
2021/11/05 02:37:25;;;;;;;5.95;4.45;;;;;;;13.20;77.52;94205.00;1693897;83;21039;-57
2021/11/05 02:39:53;;;;;;;5.30;3.52;;;;;;;13.11;77.61;94205.85;1687527;83;20988;-56
2021/11/05 02:42:22;;;;;;;4.03;2.70;;;;;;;13.05;77.80;94212.54;1688869;83;21168;-55
2021/11/05 02:44:49;;;;;;;3.92;2.72;;;;;;;12.98;77.87;94212.90;1643898;85;21086;-57
2021/11/05 02:47:25;;;;;;;3.67;3.05;;;;;;;12.90;77.94;94211.73;1674866;85;21121;-56
2021/11/05 02:49:59;;;;;;;5.55;3.35;;;;;;;12.85;78.02;94200.72;1681627;85;21038;-56
2021/11/05 02:52:26;;;;;;;4.47;3.02;;;;;;;12.80;77.98;94204.76;1682427;83;21050;-56
2021/11/05 02:54:52;;;;;;;12.55;7.42;;;;;;;12.73;78.17;94217.56;1641887;85;21155;-57
2021/11/05 02:57:19;;;;;;;8.15;6.33;;;;;;;12.66;78.34;94212.39;1708596;83;21538;-57
2021/11/05 02:59:45;;;;;;;6.92;4.55;;;;;;;12.63;78.54;94209.20;1712982;83;20980;-56
2021/11/05 03:02:15;;;;;;;3.90;3.20;;;;;;;12.60;78.61;94208.77;1718608;82;21056;-56
2021/11/05 03:04:42;;;;;;;3.30;2.70;;;;;;;12.60;78.82;94201.88;1693558;83;21125;-56
2021/11/05 03:07:09;;;;;;;3.08;2.77;;;;;;;12.63;78.87;94211.36;1660726;85;21588;-56
2021/11/05 03:09:39;;;;;;;3.72;3.37;;;;;;;12.66;78.82;94220.06;1690699;83;20984;-56
2021/11/05 03:12:09;;;;;;;2.47;2.27;;;;;;;12.69;78.86;94223.25;1696086;83;21006;-56
2021/11/05 03:14:38;;;;;;;3.12;2.83;;;;;;;12.75;78.87;94233.02;1686756;83;20982;-57
2021/11/05 03:17:06;;;;;;;3.00;2.72;;;;;;;12.80;78.84;94242.80;1706543;83;20968;-56
2021/11/05 03:19:35;;;;;;;3.62;3.17;;;;;;;12.92;78.78;94246.53;1687824;83;21173;-54
2021/11/05 03:22:04;;;;;;;4.05;3.37;;;;;;;13.03;78.45;94255.03;1689432;83;21426;-57
2021/11/05 03:24:32;;;;;;;4.15;3.60;;;;;;;13.10;78.27;94264.34;1716591;83;21031;-57
2021/11/05 03:26:59;;;;;;;5.67;4.35;;;;;;;13.08;78.17;94266.81;1712377;83;21079;-56
2021/11/05 03:29:26;;;;;;;11.38;5.97;;;;;;;13.09;78.16;94275.98;1721180;83;20995;-57
2021/11/05 03:31:53;;;;;;;37.98;17.55;;;;;;;13.12;78.19;94279.81;1726480;83;21936;-57
2021/11/05 03:34:20;;;;;;;18.65;9.68;;;;;;;13.13;77.96;94283.50;1721288;83;21121;-56
2021/11/05 03:36:46;;;;;;;35.73;15.63;;;;;;;13.15;77.90;94286.55;1680609;83;21169;-56
2021/11/05 03:39:14;;;;;;;38.05;16.75;;;;;;;13.16;77.88;94294.19;1663886;85;20987;-57
2021/11/05 03:41:41;;;;;;;29.45;13.08;;;;;;;13.13;77.92;94295.15;1704920;83;21026;-57
2021/11/05 03:44:08;;;;;;;38.58;17.32;;;;;;;13.06;77.82;94292.13;1712269;83;21783;-58
2021/11/05 03:46:35;;;;;;;34.25;16.30;;;;;;;13.05;77.88;94303.03;1719403;82;20987;-57
2021/11/05 03:49:07;;;;;;;30.08;14.58;;;;;;;13.06;77.88;94302.43;1702328;83;21083;-56
2021/11/05 03:51:33;;;;;;;57.48;25.32;;;;;;;13.05;77.74;94302.29;1725690;82;21010;-57
2021/11/05 03:54:01;;;;;;;52.58;23.73;;;;;;;12.96;77.83;94294.06;1696069;82;21036;-57
2021/11/05 03:56:28;;;;;;;49.77;23.02;;;;;;;12.88;78.12;94292.89;1666920;84;21027;-57
2021/11/05 03:58:55;;;;;;;44.08;21.50;;;;;;;12.81;78.30;94293.23;1692976;83;21094;-56
2021/11/05 04:01:23;;;;;;;43.92;20.82;;;;;;;12.81;78.45;94307.81;1691771;83;21204;-57
2021/11/05 04:03:50;;;;;;;50.28;26.25;;;;;;;12.83;78.43;94321.13;1692816;83;21187;-56
2021/11/05 04:06:18;;;;;;;50.67;26.68;;;;;;;12.82;78.31;94338.33;1693167;83;20992;-56
2021/11/05 04:08:45;;;;;;;33.28;18.00;;;;;;;12.73;78.47;94323.19;1689305;83;21131;-55
2021/11/05 04:11:14;;;;;;;50.28;27.55;;;;;;;12.65;78.53;94310.22;1698299;83;21058;-55
2021/11/05 04:13:42;;;;;;;42.35;21.52;;;;;;;12.59;78.58;94295.55;1706719;83;21088;-56
2021/11/05 04:16:09;;;;;;;32.53;17.62;;;;;;;12.52;78.94;94301.44;1693511;82;21033;-56
2021/11/05 04:18:35;;;;;;;36.58;20.48;;;;;;;12.49;79.33;94297.46;1700235;83;21024;-55
2021/11/05 04:21:02;;;;;;;33.38;17.37;;;;;;;12.52;79.30;94290.39;1696921;83;21519;-56
2021/11/05 04:23:30;;;;;;;46.00;21.93;;;;;;;12.54;79.17;94292.06;1704412;82;21252;-56
2021/11/05 04:25:56;;;;;;;33.08;18.05;;;;;;;12.54;79.00;94310.00;1706041;83;20999;-57
2021/11/05 04:28:24;;;;;;;32.70;18.00;;;;;;;12.52;78.94;94301.44;1695068;83;21089;-55
2021/11/05 04:30:50;;;;;;;38.45;20.10;;;;;;;12.49;78.98;94295.45;1691515;83;21110;-57
2021/11/05 04:33:17;;;;;;;32.53;18.60;;;;;;;12.47;78.88;94305.45;1699213;83;22360;-56
2021/11/05 04:35:43;;;;;;;36.08;19.73;;;;;;;12.43;78.67;94318.03;1687153;83;21018;-56
2021/11/05 04:38:10;;;;;;;29.98;17.62;;;;;;;12.38;78.84;94323.42;1693537;83;21042;-56
2021/11/05 04:40:38;;;;;;;29.42;15.08;;;;;;;12.33;78.82;94322.69;1696841;83;20998;-57
2021/11/05 04:43:05;;;;;;;25.05;14.83;;;;;;;12.30;78.84;94343.69;1685804;83;21166;-57
2021/11/05 04:45:32;;;;;;;38.13;26.60;;;;;;;12.23;78.90;94348.17;1686716;83;21131;-56
2021/11/05 04:48:00;;;;;;;35.73;23.98;;;;;;;12.11;79.37;94369.82;1699825;83;20987;-56
2021/11/05 04:50:27;;;;;;;19.85;12.82;;;;;;;12.05;79.71;94374.45;1700795;83;21088;-55
2021/11/05 04:52:54;;;;;;;12.70;9.20;;;;;;;12.02;80.09;94384.25;1697038;83;21540;-56
2021/11/05 04:55:21;;;;;;;15.35;11.15;;;;;;;12.05;80.36;94381.34;1707343;83;21507;-56
2021/11/05 04:57:49;;;;;;;21.85;12.60;;;;;;;12.10;80.60;94395.12;1702503;83;21205;-57
2021/11/05 05:00:17;;;;;;;25.30;14.90;;;;;;;12.16;80.59;94395.41;1688882;83;20961;-57
2021/11/05 05:02:43;;;;;;;18.90;12.65;;;;;;;12.20;80.56;94409.78;1688740;83;21471;-57
2021/11/05 05:05:11;;;;;;;21.40;13.03;;;;;;;12.23;80.45;94424.02;1673020;83;21036;-58
2021/11/05 05:07:38;;;;;;;24.35;14.60;;;;;;;12.23;80.42;94415.74;1688207;83;21098;-57
2021/11/05 05:10:07;;;;;;;19.40;12.10;;;;;;;12.21;80.43;94425.10;1704034;83;21087;-56
2021/11/05 05:12:34;;;;;;;26.15;15.65;;;;;;;12.23;80.33;94430.91;1702102;83;21552;-57
2021/11/05 05:15:01;;;;;;;29.45;20.30;;;;;;;12.23;80.57;94422.64;1698375;83;21067;-58
2021/11/05 05:17:28;;;;;;;30.65;20.10;;;;;;;12.27;80.59;94403.92;1695643;83;21120;-56
2021/11/05 05:19:54;;;;;;;47.53;27.93;;;;;;;12.31;80.45;94389.38;1688443;83;21125;-57
2021/11/05 05:22:23;;;;;;;58.30;30.97;;;;;;;12.36;80.36;94383.81;1683726;83;21909;-58
2021/11/05 05:24:51;;;;;;;27.55;16.20;;;;;;;12.40;80.02;94367.84;1688367;83;21585;-57
2021/11/05 05:27:17;;;;;;;21.23;13.00;;;;;;;12.43;79.89;94380.10;1685967;83;21163;-57
2021/11/05 05:29:44;;;;;;;24.50;14.90;;;;;;;12.48;79.97;94375.31;1667011;83;21072;-57
2021/11/05 05:32:11;;;;;;;31.55;16.65;;;;;;;12.54;79.99;94361.05;1704981;83;21070;-59
2021/11/05 05:34:39;;;;;;;30.85;18.82;;;;;;;12.61;79.74;94360.09;1707337;83;21142;-58
2021/11/05 05:37:05;;;;;;;34.33;19.57;;;;;;;12.67;79.25;94346.38;1690802;83;21096;-57
2021/11/05 05:39:33;;;;;;;39.15;23.90;;;;;;;12.69;79.01;94349.47;1666535;84;20963;-58
2021/11/05 05:42:00;;;;;;;39.75;26.17;;;;;;;12.68;78.62;94340.41;1691505;83;21018;-60
2021/11/05 05:44:26;;;;;;;42.45;26.97;;;;;;;12.63;78.56;94357.62;1721157;83;20984;-57
2021/11/05 05:46:53;;;;;;;41.60;28.35;;;;;;;12.58;78.77;94351.97;1715529;83;21433;-59
2021/11/05 05:49:19;;;;;;;28.92;18.50;;;;;;;12.57;78.76;94342.17;1695791;82;21034;-58
2021/11/05 05:51:46;;;;;;;39.15;24.32;;;;;;;12.54;78.86;94337.59;1705882;83;21122;-58
2021/11/05 05:54:13;;;;;;;39.42;23.85;;;;;;;12.56;78.82;94332.36;1720886;82;21018;-58
2021/11/05 05:56:39;;;;;;;37.98;23.73;;;;;;;12.57;78.82;94339.41;1694806;83;21032;-59
2021/11/05 05:59:06;;;;;;;104.05;57.33;;;;;;;12.60;78.74;94342.61;1710755;83;21110;-58
2021/11/05 06:01:33;;;;;;;76.00;42.60;;;;;;;12.61;78.38;94356.55;1708386;82;21072;-61
2021/11/05 06:04:00;;;;;;;69.25;39.92;;;;;;;12.57;78.59;94354.59;1698264;83;21147;-58
2021/11/05 06:06:28;;;;;;;62.00;37.25;;;;;;;12.62;78.93;94362.22;1688445;83;21004;-58
2021/11/05 06:08:57;;;;;;;60.40;36.42;;;;;;;12.70;78.77;94368.93;1682065;83;21009;-63
2021/11/05 06:11:25;;;;;;;66.60;42.03;;;;;;;12.77;78.55;94380.98;1694225;82;21296;-59
2021/11/05 06:13:53;;;;;;;69.58;42.50;;;;;;;12.83;78.67;94392.90;1709691;83;21009;-57
2021/11/05 06:16:20;;;;;;;69.22;41.35;;;;;;;12.87;78.47;94399.03;1669823;83;21133;-58
2021/11/05 06:18:50;;;;;;;54.63;33.88;;;;;;;12.90;78.40;94392.57;1697013;82;21084;-61
2021/11/05 06:21:17;;;;;;;44.75;28.90;;;;;;;12.92;78.58;94380.44;1687022;83;21185;-58
2021/11/05 06:23:44;;;;;;;33.38;20.27;;;;;;;13.02;78.60;94383.30;1684712;83;21132;-59
2021/11/05 06:26:12;;;;;;;51.50;32.50;;;;;;;13.12;78.64;94384.77;1693260;82;21697;-59
2021/11/05 06:28:40;;;;;;;53.80;34.08;;;;;;;13.23;78.45;94383.63;1695763;83;22118;-61
2021/11/05 06:31:07;;;;;;;61.90;37.15;;;;;;;13.35;78.29;94383.96;1692869;82;21071;-60
2021/11/05 06:33:35;;;;;;;59.48;33.95;;;;;;;13.47;78.03;94381.56;1687576;83;20968;-59
2021/11/05 06:36:02;;;;;;;38.60;20.40;;;;;;;13.57;77.77;94381.61;1693803;82;21136;-61
2021/11/05 06:38:28;;;;;;;15.88;10.85;;;;;;;13.66;77.66;94366.34;1687012;83;21063;-61
2021/11/05 06:40:56;;;;;;;32.55;19.27;;;;;;;13.76;77.56;94349.78;1686905;83;21024;-59
2021/11/05 06:43:24;;;;;;;48.65;27.77;;;;;;;13.90;77.24;94349.02;1690688;82;21162;-59
2021/11/05 06:45:51;;;;;;;48.05;30.52;;;;;;;14.01;76.76;94361.67;1693967;82;21630;-59
2021/11/05 06:48:19;;;;;;;98.78;60.28;;;;;;;14.07;76.23;94370.20;1683484;83;21184;-60
2021/11/05 06:50:46;;;;;;;90.12;52.67;;;;;;;14.14;75.65;94363.52;1687914;82;21612;-61
2021/11/05 06:53:13;;;;;;;60.25;35.03;;;;;;;14.23;75.29;94360.66;1691447;82;21127;-59
2021/11/05 06:55:40;;;;;;;22.15;13.60;;;;;;;14.31;74.96;94345.17;1674303;82;21134;-62
2021/11/05 06:58:09;;;;;;;17.40;12.00;;;;;;;14.42;74.43;94341.98;1659507;82;21076;-60
2021/11/05 07:00:41;;;;;;;16.65;10.53;;;;;;;14.57;74.03;94340.69;1672131;82;21493;-58
2021/11/05 07:03:10;;;;;;;27.35;16.35;;;;;;;14.77;73.72;94336.55;1681114;82;22128;-58
2021/11/05 07:05:37;;;;;;;28.02;18.05;;;;;;;14.93;73.18;94340.16;1674485;81;21074;-61
2021/11/05 07:08:05;;;;;;;16.85;12.60;;;;;;;15.19;72.54;94340.23;1672776;81;21031;-71
2021/11/05 07:10:32;;;;;;;15.23;8.65;;;;;;;15.44;72.03;94350.00;1669701;81;21633;-62
2021/11/05 07:13:01;;;;;;;24.10;12.60;;;;;;;15.71;70.16;94361.25;1672909;83;21201;-58
2021/11/05 07:15:28;;;;;;;5.58;2.40;;;;;;;16.07;68.76;94372.42;1690626;82;21086;-62
2021/11/05 07:17:55;;;;;;;9.83;3.83;;;;;;;16.40;64.29;94372.09;1682174;81;21051;-60
2021/11/05 07:20:21;;;;;;;10.78;6.20;;;;;;;16.71;63.35;94394.95;1658454;83;21140;-61
2021/11/05 07:22:48;;;;;;;16.40;7.87;;;;;;;16.95;61.79;94403.03;1692763;82;21073;-60
2021/11/05 07:25:15;;;;;;;9.15;3.80;;;;;;;17.17;61.88;94400.41;1700651;83;21084;-58
2021/11/05 07:27:43;;;;;;;4.60;2.60;;;;;;;17.34;61.09;94393.55;1700737;82;21157;-62
2021/11/05 07:30:11;;;;;;;5.50;2.67;;;;;;;17.45;60.92;94406.13;1711779;82;22227;-60
2021/11/05 07:32:44;;;;;;;9.85;4.05;;;;;;;17.45;60.51;94392.22;1701555;82;21124;-62
2021/11/05 07:35:07;;;;;;;13.93;5.42;;;;;;;17.40;60.73;94393.71;1693866;82;21102;-59
2021/11/05 07:37:35;;;;;;;14.33;8.98;;;;;;;17.34;60.82;94414.41;1690490;83;21156;-62
2021/11/05 07:40:03;;;;;;;9.93;5.72;;;;;;;17.29;60.73;94420.69;1694528;83;21074;-60
2021/11/05 07:42:30;;;;;;;9.03;4.97;;;;;;;17.28;60.43;94433.06;1702111;82;21743;-61
2021/11/05 07:44:58;;;;;;;6.00;2.60;;;;;;;17.32;60.38;94444.70;1717844;82;21507;-61
2021/11/05 07:47:25;;;;;;;8.95;3.72;;;;;;;17.37;60.41;94446.78;1720505;82;21451;-59
2021/11/05 07:49:52;;;;;;;8.25;3.42;;;;;;;17.44;60.21;94445.69;1704387;82;21099;-59
2021/11/05 07:52:19;;;;;;;3.85;3.25;;;;;;;17.51;60.33;94445.84;1696284;82;21084;-62
2021/11/05 07:54:47;;;;;;;8.78;4.45;;;;;;;17.55;60.57;94442.19;1690932;82;21069;-60
2021/11/05 07:57:14;;;;;;;8.95;6.03;;;;;;;17.55;59.98;94435.23;1707757;82;20994;-59
2021/11/05 07:59:41;;;;;;;5.45;3.67;;;;;;;17.55;59.92;94436.01;1705553;82;21064;-59
2021/11/05 08:02:08;;;;;;;6.50;2.67;;;;;;;17.57;59.44;94429.92;1702497;82;21099;-57
2021/11/05 08:04:36;;;;;;;7.47;3.70;;;;;;;17.58;59.58;94430.05;1684722;82;21070;-60
2021/11/05 08:07:03;;;;;;;12.88;6.53;;;;;;;17.57;59.69;94415.41;1692681;82;21109;-58
2021/11/05 08:09:30;;;;;;;5.03;3.77;;;;;;;17.59;59.54;94410.09;1699440;83;21153;-59
2021/11/05 08:11:58;;;;;;;4.92;2.45;;;;;;;17.58;59.39;94428.66;1687323;82;21055;-58
2021/11/05 08:14:25;;;;;;;4.12;2.45;;;;;;;17.53;59.78;94457.23;1685846;82;21528;-58
2021/11/05 08:16:52;;;;;;;6.00;4.12;;;;;;;17.47;60.02;94463.41;1680800;82;22221;-60
2021/11/05 08:19:19;;;;;;;16.50;8.43;;;;;;;17.41;60.56;94452.25;1700913;82;21572;-61
2021/11/05 08:21:46;;;;;;;8.23;5.60;;;;;;;17.37;61.07;94453.11;1683935;82;21142;-59
2021/11/05 08:24:12;;;;;;;22.10;11.03;;;;;;;17.35;60.70;94462.59;1704525;82;21519;-62
2021/11/05 08:26:39;;;;;;;14.58;8.88;;;;;;;17.37;61.11;94466.25;1693109;83;22577;-57
2021/11/05 08:29:08;;;;;;;11.90;7.15;;;;;;;17.36;61.53;94462.72;1682907;83;21006;-61
2021/11/05 08:31:35;;;;;;;41.83;26.55;;;;;;;17.37;61.59;94460.06;1708238;82;21057;-60
2021/11/05 08:34:02;;;;;;;29.60;18.55;;;;;;;17.37;62.03;94463.46;1698409;82;21036;-62
2021/11/05 08:36:29;;;;;;;33.67;22.02;;;;;;;17.40;62.64;94470.19;1684723;83;21100;-59
2021/11/05 08:38:56;;;;;;;26.55;18.37;;;;;;;17.40;62.83;94472.20;1682419;82;22132;-60
2021/11/05 08:41:23;;;;;;;20.70;13.30;;;;;;;17.38;63.15;94471.32;1674505;83;21213;-60
2021/11/05 08:43:56;;;;;;;22.27;14.60;;;;;;;17.35;63.32;94470.16;1685569;83;21030;-58
2021/11/05 08:46:27;;;;;;;17.52;10.18;;;;;;;17.34;63.62;94462.45;1708638;82;21061;-61
2021/11/05 08:49:00;;;;;;;13.87;9.93;;;;;;;17.38;63.92;94455.25;1722789;82;21101;-57
2021/11/05 08:51:28;;;;;;;15.13;8.90;;;;;;;17.45;63.96;94460.36;1700324;82;21190;-59
2021/11/05 08:53:55;;;;;;;12.78;7.95;;;;;;;17.52;64.36;94474.56;1678995;83;21466;-60
2021/11/05 08:56:22;;;;;;;16.02;5.55;;;;;;;17.58;64.23;94479.52;1699931;82;21577;-62
2021/11/05 08:58:49;;;;;;;9.48;4.85;;;;;;;17.64;64.17;94499.03;1697089;82;21075;-61
2021/11/05 09:01:16;;;;;;;7.80;5.08;;;;;;;17.66;63.82;94513.20;1704187;82;21157;-60
2021/11/05 09:03:43;;;;;;;9.83;4.70;;;;;;;17.68;63.79;94514.20;1711612;82;21136;-60
2021/11/05 09:06:10;;;;;;;5.92;4.60;;;;;;;17.73;63.66;94507.92;1715512;82;21039;-62
2021/11/05 09:08:37;;;;;;;7.12;5.45;;;;;;;17.80;63.83;94507.44;1705276;83;21691;-67
2021/11/05 09:11:06;;;;;;;12.35;6.95;;;;;;;17.83;64.19;94512.00;1691159;82;21030;-61
2021/11/05 09:13:34;;;;;;;17.02;10.60;;;;;;;17.89;63.79;94518.99;1689868;81;21046;-60
2021/11/05 09:16:02;;;;;;;26.07;14.95;;;;;;;17.93;63.32;94521.67;1683335;83;21186;-60
2021/11/05 09:18:30;;;;;;;27.65;15.00;;;;;;;17.97;63.18;94520.05;1690336;82;21023;-61
2021/11/05 09:20:58;;;;;;;24.20;15.68;;;;;;;18.01;63.03;94530.31;1687876;82;22387;-66
2021/11/05 09:23:25;;;;;;;27.45;17.77;;;;;;;18.02;63.06;94520.70;1714576;82;21056;-60
2021/11/05 09:25:54;;;;;;;20.68;14.00;;;;;;;18.04;63.31;94516.14;1687096;83;21025;-59
2021/11/05 09:28:21;;;;;;;20.08;11.65;;;;;;;18.02;63.16;94524.88;1671124;83;21222;-61
2021/11/05 09:30:50;;;;;;;19.90;11.10;;;;;;;17.95;63.00;94519.16;1684184;81;21023;-60
2021/11/05 09:33:19;;;;;;;13.28;9.13;;;;;;;17.90;62.98;94517.11;1681203;83;21048;-60
2021/11/05 09:35:47;;;;;;;22.17;14.93;;;;;;;17.92;63.11;94528.50;1687860;82;21546;-59
2021/11/05 09:38:14;;;;;;;21.02;14.03;;;;;;;17.94;62.79;94531.55;1680851;82;21449;-61
2021/11/05 09:40:41;;;;;;;25.25;13.68;;;;;;;17.93;62.93;94531.42;1711666;81;21836;-61
2021/11/05 09:43:08;;;;;;;21.90;13.15;;;;;;;17.89;63.18;94535.08;1698191;81;21039;-59
2021/11/05 09:45:35;;;;;;;28.15;13.50;;;;;;;17.88;63.28;94542.52;1698823;81;21081;-59
2021/11/05 09:48:03;;;;;;;20.30;13.28;;;;;;;17.85;63.50;94547.05;1718128;81;21115;-62
2021/11/05 09:50:30;;;;;;;26.95;13.72;;;;;;;17.88;63.18;94546.70;1683897;82;20985;-57
2021/11/05 09:52:59;;;;;;;32.78;15.78;;;;;;;17.89;63.34;94552.39;1684337;83;21557;-62
2021/11/05 09:55:26;;;;;;;33.00;17.15;;;;;;;17.89;63.57;94557.96;1704287;82;21101;-61
2021/11/05 09:57:53;;;;;;;28.92;16.45;;;;;;;17.89;63.63;94553.17;1690795;82;21037;-59
2021/11/05 10:00:25;;;;;;;24.63;15.78;;;;;;;17.87;63.70;94545.95;1671791;83;21086;-59
2021/11/05 10:02:52;;;;;;;42.48;18.10;;;;;;;17.89;63.99;94551.00;1710004;82;21054;-60
2021/11/05 10:05:19;;;;;;;34.25;17.30;;;;;;;17.92;64.12;94544.43;1660225;82;21288;-62
2021/11/05 10:07:52;;;;;;;25.27;16.40;;;;;;;17.97;64.12;94534.72;1708305;82;21521;-60
2021/11/05 10:10:26;;;;;;;19.55;12.28;;;;;;;18.00;64.07;94537.89;1698899;82;21142;-60
2021/11/05 10:13:02;;;;;;;20.57;11.93;;;;;;;18.03;64.43;94531.97;1703493;82;20996;-62
2021/11/05 10:15:45;;;;;;;23.62;12.25;;;;;;;18.03;64.24;94531.97;1690429;82;21131;-60
2021/11/05 10:18:36;;;;;;;23.40;12.35;;;;;;;18.04;64.37;94525.13;1688643;83;21077;-59
2021/11/05 10:21:14;;;;;;;17.37;11.43;;;;;;;18.07;64.84;94524.12;1709388;81;21059;-61
2021/11/05 10:23:43;;;;;;;22.05;10.48;;;;;;;18.13;64.83;94527.06;1691646;82;21043;-60
2021/11/05 10:26:25;;;;;;;20.60;11.50;;;;;;;18.20;64.61;94527.97;1694607;82;21534;-62
2021/11/05 10:28:52;;;;;;;26.17;13.03;;;;;;;18.27;64.50;94518.53;1632588;85;21592;-62
2021/11/05 10:31:19;;;;;;;25.72;14.58;;;;;;;18.38;65.11;94529.72;1608166;86;21770;-61
2021/11/05 10:33:51;;;;;;;28.92;15.65;;;;;;;18.48;64.94;94533.03;1621027;86;21078;-62
2021/11/05 10:36:21;;;;;;;22.62;12.13;;;;;;;18.60;64.01;94532.55;1651239;85;21187;-61
2021/11/05 10:38:52;;;;;;;10.88;4.72;;;;;;;18.76;62.16;94533.20;1634321;85;21035;-59
2021/11/05 10:41:21;;;;;;;19.37;9.80;;;;;;;18.96;59.17;94526.00;1622089;85;21133;-59
2021/11/05 10:43:52;;;;;;;11.45;5.87;;;;;;;19.25;59.03;94528.94;1656126;85;21127;-58
2021/11/05 10:46:36;;;;;;;13.22;6.83;;;;;;;19.59;56.69;94524.84;1654853;86;22479;-60
2021/11/05 10:49:25;;;;;;;17.65;7.78;;;;;;;19.89;55.29;94527.94;1648261;85;21034;-61
2021/11/05 10:51:53;;;;;;;14.03;7.15;;;;;;;20.06;53.86;94532.86;1631732;85;21611;-59
2021/11/05 10:54:20;;;;;;;11.33;6.60;;;;;;;20.06;53.60;94534.25;1631383;85;21063;-63
2021/11/05 10:56:49;;;;;;;9.15;4.17;;;;;;;20.00;53.26;94538.30;1652538;84;21075;-60
2021/11/05 10:59:16;;;;;;;12.28;4.40;;;;;;;19.81;53.04;94539.52;1654649;82;20955;-61
2021/11/05 11:01:44;;;;;;;7.65;3.22;;;;;;;19.66;52.98;94532.06;1709221;82;21010;-60
2021/11/05 11:04:13;;;;;;;10.03;3.60;;;;;;;19.51;53.03;94535.77;1710249;82;21472;-63
2021/11/05 11:06:45;;;;;;;8.58;4.47;;;;;;;19.37;53.38;94530.46;1692906;83;21041;-61
2021/11/05 11:09:15;;;;;;;10.68;4.75;;;;;;;19.25;53.65;94524.14;1678082;84;22556;-61
2021/11/05 11:11:46;;;;;;;19.40;10.32;;;;;;;19.13;54.48;94531.56;1691402;83;21063;-60
2021/11/05 11:14:21;;;;;;;9.95;5.05;;;;;;;18.93;55.51;94533.98;1692639;82;21083;-60
2021/11/05 11:16:51;;;;;;;5.90;3.30;;;;;;;18.74;55.05;94541.31;1691658;83;21073;-59
2021/11/05 11:19:21;;;;;;;12.27;5.83;;;;;;;18.52;55.47;94551.03;1682442;84;21107;-62
2021/11/05 11:22:01;;;;;;;9.10;5.17;;;;;;;18.35;56.24;94547.44;1685284;82;21142;-58
2021/11/05 11:24:31;;;;;;;14.75;6.78;;;;;;;18.24;56.81;94557.11;1678086;83;21040;-60
2021/11/05 11:27:00;;;;;;;7.80;4.80;;;;;;;18.11;58.06;94558.06;1710094;83;21042;-62
2021/11/05 11:29:27;;;;;;;9.35;4.65;;;;;;;18.00;58.51;94562.95;1706148;82;20998;-62